logo
Rechercher aéroport 
image banner adimage banner adimage banner ad
image banner ad

ED1083 - Loffenau

Situé à , Germany

ICAO - , IATA -

Données fournies par Airmate  

Information générale

Coordonnées: N48°45'30" E8°24'39"
Élévation : 2818 feet MSL.
 
Voir autres Aéroports à Baden-Württemberg

Données opérationnelles

Special qualification required
Heure actuelle UTC:
Heure actuelle locale:
Météo à : EDSB - Karlsruhe/Baden-Baden ( 24 km )
METAR: EDSB 251450Z 33003KT 280V010 CAVOK 25/15 Q1013
TAF: TAF EDSB 251100Z 2512/2612 VRB03KT CAVOK
Voir NOTAMs / SUP AIP / TFR affectant cet aéroport [VIEW]
Fréquences de communication: [VIEW]

Pistes:

Coordonnées de l'aéroport

Adresse: Germany

Vue satellite de ED1083